Time;durP1;ratioP1;P1;durP2;ratioP2;P2;SDS_P1;SDS_P2;PMS_P1;PMS_P2;Temp;Humidity;BMP_temperature;BMP_pressure;BME280_temperature;BME280_humidity;BME280_pressure;Samples;Min_cycle;Max_cycle;Signal;HPM_P1;HPM_P2
2022/02/01 07:45:50;;;;;;;8.00;3.07;;;5.10;99.90;;;;;;5006378;28;20289;-71
2022/02/01 07:48:17;;;;;;;5.50;2.83;;;5.10;99.90;;;;;;5013078;28;20202;-71
2022/02/01 07:50:45;;;;;;;5.93;2.60;;;5.20;99.90;;;;;;5013415;28;20222;-74
2022/02/01 07:53:12;;;;;;;6.03;2.90;;;5.20;99.90;;;;;;5002304;28;20586;-70
2022/02/01 07:55:40;;;;;;;5.67;2.23;;;5.20;99.90;;;;;;4993828;28;20570;-73
2022/02/01 07:58:07;;;;;;;10.60;2.93;;;5.30;99.90;;;;;;4999400;28;20392;-72
2022/02/01 08:00:34;;;;;;;6.07;2.73;;;5.30;99.90;;;;;;4988591;28;20261;-73
2022/02/01 08:03:02;;;;;;;7.13;2.83;;;5.30;99.90;;;;;;4974344;28;20207;-71
2022/02/01 08:05:30;;;;;;;6.17;2.70;;;5.30;99.90;;;;;;4991835;28;20316;-70
2022/02/01 08:07:59;;;;;;;12.80;2.70;;;5.30;99.90;;;;;;5001748;28;20214;-72
2022/02/01 08:10:29;;;;;;;5.00;2.80;;;5.30;99.90;;;;;;5002997;28;20228;-72
2022/02/01 08:16:14;;;;;;;4.23;2.83;;;5.40;99.90;;;;;;5004111;28;20202;-73
2022/02/01 08:21:29;;;;;;;5.17;3.00;;;5.60;99.90;;;;;;4963240;28;20219;-71
2022/02/01 08:23:56;;;;;;;7.00;2.70;;;5.60;99.90;;;;;;4973947;28;20207;-73
2022/02/01 08:26:26;;;;;;;4.37;2.20;;;5.60;99.90;;;;;;4973850;28;20234;-71
2022/02/01 08:28:53;;;;;;;5.63;2.60;;;5.50;99.90;;;;;;4974146;28;20210;-71
2022/02/01 08:31:20;;;;;;;5.53;2.40;;;5.50;99.90;;;;;;4974133;28;20223;-71
2022/02/01 08:33:48;;;;;;;6.20;2.50;;;5.60;99.90;;;;;;4974061;28;20215;-71
2022/02/01 08:36:15;;;;;;;3.30;2.13;;;5.60;99.90;;;;;;4973812;28;20208;-72
2022/02/01 08:38:42;;;;;;;4.40;2.10;;;5.60;99.90;;;;;;4973647;28;20213;-72
2022/02/01 08:41:09;;;;;;;5.40;2.40;;;5.70;99.90;;;;;;4973604;28;20579;-72
2022/02/01 08:43:35;;;;;;;5.27;2.60;;;5.70;99.90;;;;;;4973726;28;20250;-71
2022/02/01 08:46:02;;;;;;;4.07;2.30;;;5.70;99.90;;;;;;4974019;28;20235;-73
2022/02/01 08:48:29;;;;;;;9.47;2.90;;;5.70;99.90;;;;;;4973709;28;20207;-72
2022/02/01 08:51:02;;;;;;;7.27;2.33;;;5.80;99.90;;;;;;4973759;28;20227;-71
2022/02/01 08:53:42;;;;;;;5.80;2.60;;;5.90;99.90;;;;;;4973282;28;20538;-72
2022/02/01 08:57:20;;;;;;;5.20;2.60;;;5.90;99.90;;;;;;5001944;28;20285;-71
2022/02/01 08:58:56;;;;;;;4.53;2.60;;;6.00;99.90;;;;;;5012321;28;20210;-71
2022/02/01 09:01:22;;;;;;;6.17;2.87;;;5.90;99.90;;;;;;5012500;28;20316;-71
2022/02/01 09:03:49;;;;;;;7.30;3.00;;;5.90;99.90;;;;;;5011894;28;20206;-72
2022/02/01 09:06:20;;;;;;;5.83;2.70;;;5.90;99.90;;;;;;5013857;28;20240;-71
2022/02/01 09:08:47;;;;;;;4.43;2.60;;;6.00;99.90;;;;;;5016503;28;20549;-72
2022/02/01 09:11:14;;;;;;;7.63;3.23;;;6.20;99.90;;;;;;5016297;28;20317;-73
2022/02/01 09:13:42;;;;;;;4.93;2.73;;;6.20;99.90;;;;;;5016478;28;20221;-72
2022/02/01 09:16:09;;;;;;;6.23;2.93;;;6.20;99.90;;;;;;5016153;28;20661;-74
2022/02/01 09:18:36;;;;;;;5.93;3.30;;;6.20;99.90;;;;;;5016222;28;20209;-73
2022/02/01 09:21:03;;;;;;;5.10;2.57;;;6.30;99.90;;;;;;5015714;28;20225;-73
2022/02/01 09:23:32;;;;;;;5.93;3.10;;;6.20;99.90;;;;;;5016336;28;20212;-72
2022/02/01 09:25:59;;;;;;;5.77;2.87;;;6.30;99.90;;;;;;5016021;28;20226;-72
2022/02/01 09:28:27;;;;;;;7.73;2.93;;;6.30;99.90;;;;;;5016233;28;20216;-72
2022/02/01 09:30:54;;;;;;;6.80;3.20;;;6.30;99.90;;;;;;5008702;28;20222;-73
2022/02/01 09:33:21;;;;;;;5.00;2.77;;;6.40;99.90;;;;;;4995332;28;20667;-72
2022/02/01 09:35:48;;;;;;;7.33;3.27;;;6.40;99.90;;;;;;4995428;28;20206;-72
2022/02/01 09:38:17;;;;;;;8.20;3.07;;;6.50;99.90;;;;;;4982207;28;20322;-72
2022/02/01 09:40:45;;;;;;;9.77;3.40;;;6.50;99.90;;;;;;4976913;28;20592;-73
2022/02/01 09:43:14;;;;;;;6.83;2.90;;;6.60;99.90;;;;;;4976742;28;20219;-72
2022/02/01 09:45:41;;;;;;;5.40;3.13;;;6.60;99.90;;;;;;4976478;28;20624;-72
2022/02/01 09:48:08;;;;;;;9.37;3.10;;;6.60;99.90;;;;;;4976691;28;20213;-72
2022/02/01 09:50:36;;;;;;;6.03;3.20;;;6.60;99.90;;;;;;4987378;28;20590;-73
2022/02/01 09:53:03;;;;;;;4.73;2.90;;;6.70;99.90;;;;;;4990995;28;20571;-74
2022/02/01 09:55:30;;;;;;;5.97;3.00;;;6.70;99.90;;;;;;4986920;28;20207;-73
2022/02/01 09:57:58;;;;;;;5.60;3.00;;;6.60;99.90;;;;;;5012981;28;20206;-73
2022/02/01 10:00:33;;;;;;;4.50;2.73;;;6.60;99.90;;;;;;4996531;28;20227;-72
2022/02/01 10:03:00;;;;;;;6.90;2.93;;;6.60;99.90;;;;;;4995283;28;20289;-75
2022/02/01 10:05:28;;;;;;;6.30;3.10;;;6.60;99.90;;;;;;4995275;28;20202;-72
2022/02/01 10:07:56;;;;;;;6.20;3.07;;;6.70;99.90;;;;;;4994947;28;20202;-72
2022/02/01 10:10:25;;;;;;;6.17;3.57;;;6.70;99.90;;;;;;4994906;28;20226;-72
2022/02/01 10:13:02;;;;;;;8.27;3.37;;;6.70;99.90;;;;;;4975571;28;20671;-72
2022/02/01 10:15:34;;;;;;;6.43;3.30;;;6.70;99.90;;;;;;4975290;28;20289;-75
2022/02/01 10:18:03;;;;;;;7.27;2.50;;;6.70;99.90;;;;;;4975750;28;20207;-74
2022/02/01 10:20:36;;;;;;;4.67;2.67;;;6.70;99.90;;;;;;4982836;28;20630;-74
2022/02/01 10:23:20;;;;;;;5.27;3.20;;;6.70;99.90;;;;;;4995128;28;20206;-75
2022/02/01 10:26:05;;;;;;;9.13;4.67;;;6.70;99.90;;;;;;5006888;28;20230;-74
2022/02/01 10:28:53;;;;;;;9.80;3.57;;;6.70;99.90;;;;;;4986017;28;20556;-74
2022/02/01 10:31:27;;;;;;;8.40;3.37;;;6.80;99.90;;;;;;4989929;28;20263;-73
2022/02/01 10:34:04;;;;;;;5.57;3.40;;;6.80;99.90;;;;;;4979149;28;20297;-74
2022/02/01 10:36:39;;;;;;;8.27;3.67;;;6.80;99.90;;;;;;4975365;28;20218;-73
2022/02/01 10:39:18;;;;;;;8.10;3.30;;;6.90;99.90;;;;;;4975471;28;20290;-74
2022/02/01 10:41:57;;;;;;;8.50;3.40;;;6.90;99.90;;;;;;4992899;28;20702;-73
2022/02/01 10:44:37;;;;;;;10.63;2.47;;;6.90;99.90;;;;;;4992012;28;20214;-73
2022/02/01 10:47:05;;;;;;;5.13;3.03;;;8.10;99.90;;;;;;4976632;28;20239;-73
2022/02/01 10:49:33;;;;;;;5.90;2.80;;;9.00;99.90;;;;;;4991915;28;20202;-73
2022/02/01 10:52:01;;;;;;;3.77;1.87;;;8.80;99.90;;;;;;4994652;28;20230;-72
2022/02/01 10:54:29;;;;;;;6.03;2.80;;;8.80;99.90;;;;;;4994406;28;20671;-73
2022/02/01 10:56:55;;;;;;;4.23;2.50;;;8.90;99.90;;;;;;4994583;28;20222;-72
2022/02/01 10:59:25;;;;;;;4.47;2.87;;;8.30;99.90;;;;;;4994634;28;20647;-74
2022/02/01 11:01:52;;;;;;;2.63;2.00;;;7.80;99.90;;;;;;4994549;28;20234;-73
2022/02/01 11:04:21;;;;;;;2.90;2.13;;;7.60;99.90;;;;;;4994463;28;20206;-72
2022/02/01 11:06:50;;;;;;;4.40;2.03;;;7.50;99.90;;;;;;4994553;28;20710;-73
2022/02/01 11:09:19;;;;;;;4.87;2.10;;;7.40;99.90;;;;;;5000214;28;20206;-70
2022/02/01 11:11:53;;;;;;;4.60;2.27;;;7.30;99.90;;;;;;4994279;28;20231;-72
2022/02/01 11:14:21;;;;;;;4.00;1.93;;;7.20;99.90;;;;;;4994169;28;20203;-74
2022/02/01 11:16:49;;;;;;;3.87;2.37;;;7.20;99.90;;;;;;4994242;28;20214;-71
2022/02/01 11:19:16;;;;;;;3.60;2.23;;;7.30;99.90;;;;;;4994022;28;20583;-71
2022/02/01 11:21:46;;;;;;;3.63;2.40;;;7.40;99.90;;;;;;4986445;28;20223;-71
2022/02/01 11:24:23;;;;;;;5.03;2.47;;;7.40;99.90;;;;;;4974990;28;20211;-71
2022/02/01 11:27:03;;;;;;;6.27;2.40;;;7.30;99.90;;;;;;4974725;28;20269;-70
2022/02/01 11:29:39;;;;;;;3.03;2.07;;;7.40;99.90;;;;;;4973985;28;20211;-72
2022/02/01 11:32:19;;;;;;;6.03;2.70;;;7.50;99.90;;;;;;4974447;28;20223;-72
2022/02/01 11:34:46;;;;;;;7.00;2.93;;;7.50;99.90;;;;;;4974639;28;20730;-72
2022/02/01 11:37:16;;;;;;;4.20;2.87;;;7.50;99.90;;;;;;4974459;28;20694;-72
2022/02/01 11:39:54;;;;;;;3.80;2.83;;;7.40;99.90;;;;;;4975871;28;20210;-71
2022/02/01 11:42:23;;;;;;;3.97;2.70;;;7.50;99.90;;;;;;4993579;28;20753;-71
2022/02/01 11:45:00;;;;;;;5.87;2.90;;;7.60;99.90;;;;;;4992608;28;20202;-74
2022/02/01 11:47:35;;;;;;;6.73;3.10;;;7.70;99.90;;;;;;4984576;28;20222;-72
2022/02/01 11:50:11;;;;;;;6.37;3.20;;;7.60;99.90;;;;;;4980456;28;20208;-71
2022/02/01 11:52:43;;;;;;;6.90;3.20;;;7.70;99.90;;;;;;4999610;28;20201;-71
2022/02/01 11:55:11;;;;;;;7.63;3.60;;;7.70;99.90;;;;;;4998428;28;20205;-74
2022/02/01 11:57:43;;;;;;;4.97;3.33;;;7.70;99.90;;;;;;5002935;28;20301;-71
2022/02/01 12:00:16;;;;;;;4.63;2.93;;;7.70;99.90;;;;;;4992289;28;20722;-71
2022/02/01 12:02:50;;;;;;;8.17;3.20;;;7.70;99.90;;;;;;4992661;28;20284;-73
2022/02/01 12:05:19;;;;;;;4.97;3.70;;;7.80;99.90;;;;;;4994520;28;20729;-72
2022/02/01 12:07:54;;;;;;;4.93;3.10;;;7.80;99.90;;;;;;4993140;28;20325;-72
2022/02/01 12:10:22;;;;;;;9.70;3.80;;;7.90;99.90;;;;;;4993926;28;20236;-72
2022/02/01 12:12:49;;;;;;;8.47;3.73;;;8.00;99.90;;;;;;4992939;28;20205;-71
2022/02/01 12:15:15;;;;;;;6.53;3.17;;;8.10;99.90;;;;;;4992497;28;20289;-72
2022/02/01 12:17:49;;;;;;;7.37;3.57;;;8.10;99.90;;;;;;4993017;28;20237;-72
2022/02/01 12:20:18;;;;;;;7.23;3.37;;;8.10;99.90;;;;;;4993136;28;20296;-74
2022/02/01 12:23:14;;;;;;;11.87;4.23;;;8.10;99.90;;;;;;4993317;28;20213;-72
2022/02/01 12:25:41;;;;;;;4.40;3.10;;;8.20;99.90;;;;;;4993043;28;20206;-71
2022/02/01 12:28:16;;;;;;;5.77;3.33;;;8.10;99.90;;;;;;4992925;28;20328;-73
2022/02/01 12:30:43;;;;;;;6.87;3.70;;;8.30;99.90;;;;;;4992526;28;20268;-71
2022/02/01 12:33:18;;;;;;;12.80;3.70;;;8.30;99.90;;;;;;4993323;28;20225;-72
2022/02/01 12:35:45;;;;;;;7.47;3.53;;;8.40;99.90;;;;;;4992739;28;20212;-71
2022/02/01 12:38:18;;;;;;;6.83;2.87;;;8.40;99.90;;;;;;5002260;28;20216;-72
2022/02/01 12:40:45;;;;;;;7.17;2.80;;;8.50;99.90;;;;;;5012191;28;20229;-72
2022/02/01 12:43:16;;;;;;;6.67;2.90;;;8.60;99.90;;;;;;4996826;28;20694;-72
2022/02/01 12:45:50;;;;;;;6.27;2.83;;;8.60;99.90;;;;;;4996897;28;20265;-72
2022/02/01 12:48:20;;;;;;;7.63;2.83;;;8.50;99.90;;;;;;4996821;28;20262;-72
2022/02/01 12:50:57;;;;;;;11.27;2.93;;;8.60;99.90;;;;;;4997043;28;20226;-72
2022/02/01 12:53:24;;;;;;;6.60;2.77;;;8.60;99.90;;;;;;4996695;28;20206;-72
2022/02/01 12:55:51;;;;;;;4.93;3.33;;;8.80;99.90;;;;;;4996458;28;20208;-72
2022/02/01 12:58:19;;;;;;;6.13;2.90;;;8.90;99.90;;;;;;4996696;28;20217;-72
2022/02/01 13:00:51;;;;;;;7.37;2.73;;;9.00;99.90;;;;;;4996095;28;20237;-74
2022/02/01 13:03:19;;;;;;;10.17;3.00;;;9.00;99.90;;;;;;4976941;28;20207;-71
2022/02/01 13:05:46;;;;;;;7.30;2.60;;;9.10;99.90;;;;;;4982635;28;20195;-73
2022/02/01 13:16:46;;;;;;;11.77;2.90;;;9.10;99.90;;;;;;4995653;28;20206;-72
2022/02/01 13:22:09;;;;;;;5.50;2.13;;;9.30;99.90;;;;;;5009775;28;20233;-72
2022/02/01 13:24:36;;;;;;;7.60;2.50;;;9.20;99.90;;;;;;4996679;28;20226;-73
2022/02/01 13:27:03;;;;;;;8.75;2.85;;;9.20;99.90;;;;;;5002612;28;20442;-72
2022/02/01 13:29:29;;;;;;;6.27;2.80;;;9.30;99.90;;;;;;5001451;28;20229;-76
2022/02/01 13:31:56;;;;;;;8.93;2.70;;;9.40;99.90;;;;;;4994533;28;20226;-75
2022/02/01 13:34:30;;;;;;;8.33;2.60;;;9.50;99.90;;;;;;4996568;28;20222;-74
2022/02/01 13:37:00;;;;;;;3.90;2.63;;;9.50;99.90;;;;;;4995276;28;20210;-73
2022/02/01 13:39:30;;;;;;;9.93;2.70;;;9.60;99.90;;;;;;4997365;28;20211;-76
2022/02/01 13:41:58;;;;;;;9.93;2.00;;;9.70;99.90;;;;;;5055175;23;20235;-73
2022/02/01 13:44:25;;;;;;;7.23;2.23;;;9.80;99.90;;;;;;5043050;28;20568;-78
2022/02/01 13:47:03;;;;;;;10.33;2.53;;;9.90;99.90;;;;;;5053440;28;20227;-73
2022/02/01 13:49:31;;;;;;;7.47;2.27;;;10.10;99.90;;;;;;5036652;28;20201;-72
2022/02/01 13:51:59;;;;;;;8.33;2.10;;;10.10;99.90;;;;;;5042453;28;20703;-73
2022/02/01 13:54:38;;;;;;;3.53;1.83;;;10.00;99.90;;;;;;5053200;28;20208;-74
2022/02/01 13:57:11;;;;;;;4.70;2.13;;;10.00;99.90;;;;;;5054076;28;20200;-76
2022/02/01 13:59:38;;;;;;;6.40;1.90;;;10.00;99.90;;;;;;5053681;28;20200;-74
2022/02/01 14:02:07;;;;;;;5.50;2.23;;;10.00;99.90;;;;;;5052785;28;20270;-81
2022/02/01 14:04:41;;;;;;;8.67;2.30;;;10.10;99.90;;;;;;5053436;28;20207;-73
2022/02/01 14:07:15;;;;;;;6.83;1.70;;;10.10;99.90;;;;;;5058822;28;20223;-72
2022/02/01 14:09:57;;;;;;;2.87;1.47;;;10.20;99.90;;;;;;5067989;28;20195;-78
2022/02/01 14:24:11;;;;;;;4.60;2.00;;;10.10;99.90;;;;;;5032946;28;20676;-72
2022/02/01 14:26:46;;;;;;;7.40;1.67;;;10.10;99.90;;;;;;5033199;28;20263;-73
2022/02/01 14:32:17;;;;;;;4.13;1.90;;;10.20;99.90;;;;;;5061372;28;20795;-75
2022/02/01 14:34:45;;;;;;;4.30;1.70;;;10.30;99.90;;;;;;5069607;28;20572;-73
2022/02/01 14:37:17;;;;;;;3.93;2.53;;;10.20;99.90;;;;;;5050986;28;20315;-72
2022/02/01 14:45:14;;;;;;;5.67;1.73;;;10.40;99.90;;;;;;5044065;28;20726;-71
2022/02/01 14:47:41;;;;;;;6.13;1.57;;;10.50;99.90;;;;;;5044504;28;20318;-71
2022/02/01 14:50:09;;;;;;;3.37;1.50;;;10.40;99.90;;;;;;5048598;28;20196;-71
2022/02/01 14:52:39;;;;;;;6.23;2.10;;;10.50;99.90;;;;;;5051642;28;20200;-72
2022/02/01 14:55:10;;;;;;;4.40;1.40;;;10.60;99.90;;;;;;5067806;28;20200;-71
2022/02/01 15:11:44;;;;;;;7.43;1.80;;;10.30;99.90;;;;;;5033849;28;20583;-68
2022/02/01 15:14:11;;;;;;;4.80;1.80;;;10.20;99.90;;;;;;5034045;28;20200;-72
2022/02/01 15:16:38;;;;;;;5.77;1.83;;;10.10;99.90;;;;;;5037324;28;20204;-68
2022/02/01 15:19:05;;;;;;;3.23;1.73;;;10.10;99.90;;;;;;5053847;28;20287;-69
2022/02/01 15:21:32;;;;;;;5.23;1.90;;;10.10;99.90;;;;;;5053749;28;20223;-69
2022/02/01 15:24:00;;;;;;;6.60;1.97;;;10.10;99.90;;;;;;5053969;28;20215;-67
2022/02/01 15:26:27;;;;;;;3.23;1.70;;;10.20;99.90;;;;;;5053566;28;20727;-70
2022/02/01 15:28:54;;;;;;;4.20;1.70;;;10.20;99.90;;;;;;5053765;28;20233;-69
2022/02/01 15:31:22;;;;;;;6.03;1.67;;;10.20;99.90;;;;;;5053395;28;20216;-67
2022/02/01 15:33:49;;;;;;;7.17;2.10;;;10.20;99.90;;;;;;5053168;28;20204;-68
2022/02/01 15:36:16;;;;;;;5.10;1.87;;;10.10;99.90;;;;;;5053189;28;20199;-69
2022/02/01 15:45:51;;;;;;;3.60;1.77;;;10.10;99.90;;;;;;5053737;28;20206;-68
2022/02/01 15:58:05;;;;;;;8.43;1.63;;;9.90;99.90;;;;;;5050929;28;20208;-70
2022/02/01 16:00:35;;;;;;;3.10;1.50;;;9.90;99.90;;;;;;5052702;28;20224;-73
2022/02/01 16:03:08;;;;;;;4.50;1.60;;;9.80;99.90;;;;;;5053381;28;20228;-72
2022/02/01 16:05:35;;;;;;;4.93;1.70;;;9.90;99.90;;;;;;5053200;28;20258;-72
2022/02/01 16:08:02;;;;;;;3.40;1.70;;;9.90;99.90;;;;;;5052911;28;20234;-72
2022/02/01 16:10:35;;;;;;;2.80;1.40;;;9.90;99.90;;;;;;5052806;28;20591;-75
2022/02/01 16:13:09;;;;;;;5.87;1.70;;;10.00;99.90;;;;;;5052967;28;20203;-78
2022/02/01 16:15:37;;;;;;;4.50;1.43;;;10.00;99.90;;;;;;5053217;28;20204;-69
2022/02/01 16:18:03;;;;;;;3.47;1.47;;;10.10;99.90;;;;;;5052662;28;20204;-69
2022/02/01 16:20:30;;;;;;;6.10;1.80;;;10.20;99.90;;;;;;5053036;28;20227;-71
2022/02/01 16:22:57;;;;;;;2.80;1.43;;;10.20;99.90;;;;;;5053301;28;20208;-79
2022/02/01 16:25:24;;;;;;;2.53;1.20;;;10.30;99.90;;;;;;5053654;28;20207;-76
2022/02/01 16:27:53;;;;;;;4.57;1.37;;;10.30;99.90;;;;;;5055138;28;20228;-79
2022/02/01 16:30:24;;;;;;;6.33;1.90;;;10.30;99.90;;;;;;5053351;28;20220;-80
2022/02/01 16:32:51;;;;;;;8.53;1.70;;;10.30;99.90;;;;;;5053151;28;20665;-77
2022/02/01 16:35:18;;;;;;;3.60;1.67;;;10.20;99.90;;;;;;5053949;28;20208;-76
2022/02/01 16:37:44;;;;;;;3.57;1.67;;;10.20;99.90;;;;;;5053403;28;20262;-73
2022/02/01 16:40:12;;;;;;;6.03;1.37;;;10.30;99.90;;;;;;5053477;28;20220;-79
2022/02/01 16:42:43;;;;;;;5.53;1.33;;;10.40;99.90;;;;;;5053622;28;20207;-72
2022/02/01 16:45:11;;;;;;;5.93;1.53;;;10.30;99.90;;;;;;5053665;28;20204;-78
2022/02/01 16:47:40;;;;;;;6.30;1.60;;;10.30;99.90;;;;;;5053072;28;20719;-81
2022/02/01 16:50:12;;;;;;;4.27;1.47;;;10.40;99.90;;;;;;5053288;28;20242;-80
2022/02/01 16:52:44;;;;;;;1.67;1.03;;;10.50;99.90;;;;;;5053260;28;20270;-80
2022/02/01 16:55:16;;;;;;;3.73;1.40;;;10.40;99.90;;;;;;5053328;28;20210;-79
2022/02/01 16:57:50;;;;;;;4.23;1.77;;;10.40;99.90;;;;;;5053222;28;20295;-77
2022/02/01 17:00:27;;;;;;;5.17;1.33;;;10.40;99.90;;;;;;5053036;28;20273;-70
2022/02/01 17:02:56;;;;;;;3.30;1.33;;;10.40;99.90;;;;;;5053491;28;20580;-78
2022/02/01 17:05:22;;;;;;;3.63;1.47;;;10.40;99.90;;;;;;5053420;28;20234;-78
2022/02/01 17:07:49;;;;;;;5.90;1.07;;;10.50;99.90;;;;;;5053071;28;20227;-77
2022/02/01 17:10:16;;;;;;;4.07;1.40;;;10.50;99.90;;;;;;5052647;28;20220;-88
2022/02/01 17:12:48;;;;;;;4.73;1.53;;;10.50;99.90;;;;;;5052418;28;20201;-82
2022/02/01 17:15:37;;;;;;;2.90;1.50;;;10.50;99.90;;;;;;5052229;28;20196;-81
2022/02/01 17:18:32;;;;;;;5.67;1.77;;;10.60;99.90;;;;;;5049767;28;20283;-82
2022/02/01 17:23:43;;;;;;;5.80;1.67;;;10.50;99.90;;;;;;5053147;28;20207;-73
2022/02/01 17:26:12;;;;;;;5.67;1.70;;;10.60;99.90;;;;;;5053199;28;20204;-82
2022/02/01 17:28:39;;;;;;;2.93;1.50;;;10.60;99.90;;;;;;5056074;28;20236;-74
2022/02/01 17:31:07;;;;;;;3.57;1.20;;;10.60;99.90;;;;;;5055543;28;20223;-77
2022/02/01 17:33:36;;;;;;;4.73;1.67;;;10.70;99.90;;;;;;5055354;28;20196;-83
2022/02/01 17:36:03;;;;;;;2.80;0.90;;;10.70;99.90;;;;;;5054633;28;20207;-82
2022/02/01 17:38:30;;;;;;;5.20;1.70;;;10.70;99.90;;;;;;5054772;28;20193;-82
2022/02/01 17:40:57;;;;;;;3.50;1.40;;;10.80;99.90;;;;;;5055278;28;20231;-72
2022/02/01 17:43:24;;;;;;;4.03;1.30;;;10.80;99.90;;;;;;5055576;28;20208;-81
2022/02/01 17:45:51;;;;;;;2.80;1.10;;;10.80;99.90;;;;;;5055030;28;20324;-75
2022/02/01 17:48:19;;;;;;;6.40;1.50;;;10.70;99.90;;;;;;5056583;28;20224;-82
2022/02/01 17:51:00;;;;;;;6.03;1.50;;;10.80;99.90;;;;;;5055620;28;20219;-81
2022/02/01 17:53:38;;;;;;;4.23;1.40;;;10.60;99.90;;;;;;5056030;28;20227;-80
2022/02/01 17:56:06;;;;;;;4.27;1.30;;;10.70;99.90;;;;;;5055215;28;20208;-72
2022/02/01 17:58:33;;;;;;;3.47;1.30;;;10.60;99.90;;;;;;5054735;28;20214;-82
2022/02/01 18:01:00;;;;;;;3.90;1.20;;;10.70;99.90;;;;;;5055039;28;20323;-82
2022/02/01 18:03:27;;;;;;;3.53;1.13;;;10.70;99.90;;;;;;5055012;28;20204;-68
2022/02/01 18:05:55;;;;;;;2.83;1.33;;;10.70;99.90;;;;;;5054337;28;20200;-80
2022/02/01 18:08:22;;;;;;;3.50;1.03;;;10.80;99.90;;;;;;5051616;28;20226;-80
2022/02/01 18:10:48;;;;;;;1.23;0.70;;;10.80;99.90;;;;;;5056059;28;20236;-83
2022/02/01 18:13:27;;;;;;;3.27;1.03;;;10.60;99.90;;;;;;5055697;28;20204;-83
2022/02/01 18:15:56;;;;;;;2.17;0.80;;;10.60;99.90;;;;;;5055054;28;20303;-77
2022/02/01 18:18:26;;;;;;;2.27;0.83;;;10.70;99.90;;;;;;5054616;28;20661;-82
2022/02/01 18:21:00;;;;;;;2.67;0.70;;;10.60;99.90;;;;;;5054918;28;20220;-81
2022/02/01 18:23:29;;;;;;;2.33;0.87;;;10.50;99.90;;;;;;5054916;28;20254;-80
2022/02/01 18:25:56;;;;;;;1.07;0.70;;;10.40;99.90;;;;;;5054764;28;20212;-82
2022/02/01 18:28:25;;;;;;;2.30;0.83;;;10.20;99.90;;;;;;5058594;28;20715;-81
2022/02/01 18:30:53;;;;;;;2.47;0.80;;;10.20;99.90;;;;;;5057548;28;20223;-81
2022/02/01 18:33:20;;;;;;;3.80;0.80;;;10.20;99.90;;;;;;5067225;28;20214;-75
2022/02/01 18:35:49;;;;;;;3.20;0.53;;;10.20;99.90;;;;;;5075507;28;20199;-80
2022/02/01 18:38:19;;;;;;;4.50;1.37;;;10.10;99.90;;;;;;5074569;28;20207;-80
2022/02/01 18:40:51;;;;;;;7.33;1.03;;;10.20;99.90;;;;;;5070387;28;20219;-80
2022/02/01 18:43:23;;;;;;;3.50;0.70;;;10.10;99.90;;;;;;5051122;28;20200;-81
2022/02/01 18:45:57;;;;;;;5.10;0.80;;;10.20;99.90;;;;;;5061805;28;20204;-80
2022/02/01 18:48:28;;;;;;;2.80;0.80;;;10.20;99.90;;;;;;5075436;28;20252;-81
2022/02/01 18:51:00;;;;;;;1.50;0.70;;;10.30;99.90;;;;;;5054883;28;20731;-81
2022/02/01 18:53:43;;;;;;;2.50;0.90;;;10.40;99.90;;;;;;5057118;28;20203;-81
2022/02/01 18:56:41;;;;;;;1.60;0.80;;;10.50;99.90;;;;;;5051177;28;20227;-79
2022/02/01 18:59:12;;;;;;;3.13;0.70;;;10.50;99.90;;;;;;5050642;28;20231;-80
2022/02/01 19:07:29;;;;;;;2.53;0.93;;;10.30;99.90;;;;;;5036590;28;20552;-81
2022/02/01 19:12:45;;;;;;;3.00;0.70;;;10.20;99.90;;;;;;5033940;28;20271;-72
2022/02/01 19:15:17;;;;;;;0.80;0.47;;;10.20;99.90;;;;;;5033944;28;20205;-81
2022/02/01 19:17:44;;;;;;;1.70;0.70;;;10.20;99.90;;;;;;5034869;28;20200;-81
2022/02/01 19:20:12;;;;;;;3.93;0.70;;;10.30;99.90;;;;;;5034845;28;20232;-78
2022/02/01 19:22:40;;;;;;;1.17;0.70;;;10.20;99.90;;;;;;5034108;28;20292;-79
2022/02/01 19:25:13;;;;;;;1.83;0.83;;;10.30;99.90;;;;;;5034112;28;20205;-81
2022/02/01 19:27:41;;;;;;;3.13;1.17;;;10.30;99.90;;;;;;5033901;28;20209;-80
2022/02/01 19:30:11;;;;;;;3.77;1.00;;;10.20;99.90;;;;;;5034040;28;20735;-80
2022/02/01 19:32:40;;;;;;;2.80;0.80;;;10.20;99.90;;;;;;5033890;28;20200;-81
2022/02/01 19:35:10;;;;;;;3.00;0.80;;;10.20;99.90;;;;;;5033895;28;20666;-81
2022/02/01 19:37:37;;;;;;;3.70;0.90;;;10.10;99.90;;;;;;5034005;28;20209;-69
2022/02/01 19:40:05;;;;;;;1.67;0.83;;;10.10;99.90;;;;;;5067949;28;20209;-79
2022/02/01 19:42:51;;;;;;;3.13;0.80;;;10.10;99.90;;;;;;5073455;28;20215;-73
2022/02/01 19:45:18;;;;;;;4.63;1.17;;;10.10;99.90;;;;;;5038373;22;20656;-71
2022/02/01 19:47:45;;;;;;;4.50;0.80;;;10.20;99.90;;;;;;5012910;28;20210;-72
2022/02/01 19:50:14;;;;;;;9.07;1.30;;;10.20;99.90;;;;;;5002708;28;20242;-71
2022/02/01 19:52:41;;;;;;;4.80;0.80;;;10.20;99.90;;;;;;5009823;28;20260;-72
2022/02/01 19:55:09;;;;;;;1.03;0.60;;;10.20;99.90;;;;;;5009612;28;20228;-72
2022/02/01 19:57:40;;;;;;;4.77;1.33;;;10.20;99.90;;;;;;5011824;28;20202;-72
2022/02/01 20:00:10;;;;;;;2.97;1.07;;;10.20;99.90;;;;;;5012449;28;20218;-72
2022/02/01 20:02:38;;;;;;;5.87;0.90;;;10.20;99.90;;;;;;5012229;28;20208;-73
2022/02/01 20:05:08;;;;;;;1.87;1.00;;;10.10;99.90;;;;;;5016785;28;20205;-73
2022/02/01 20:07:37;;;;;;;3.17;0.60;;;10.20;99.90;;;;;;5031596;28;20197;-71
2022/02/01 20:10:07;;;;;;;2.20;0.80;;;10.20;99.90;;;;;;5027046;28;20320;-72
2022/02/01 20:12:37;;;;;;;2.27;0.70;;;10.20;99.90;;;;;;5032433;28;20215;-72
2022/02/01 20:15:06;;;;;;;5.03;0.70;;;10.30;99.90;;;;;;5032401;28;20215;-71
2022/02/01 20:17:33;;;;;;;5.60;0.93;;;10.40;99.90;;;;;;5032873;28;20255;-72
2022/02/01 20:20:00;;;;;;;1.27;0.63;;;10.30;99.90;;;;;;5032746;28;20231;-72
2022/02/01 20:22:29;;;;;;;3.60;0.80;;;10.30;99.90;;;;;;5032466;28;20200;-74
2022/02/01 20:24:56;;;;;;;3.07;1.70;;;10.30;99.90;;;;;;5032584;28;20780;-72
2022/02/01 20:27:26;;;;;;;3.20;0.50;;;10.30;99.90;;;;;;5032652;28;20197;-72
2022/02/01 20:29:55;;;;;;;3.17;0.87;;;10.30;99.90;;;;;;5031890;28;20271;-73
2022/02/01 20:32:24;;;;;;;2.23;0.90;;;10.30;99.90;;;;;;5032270;28;20209;-73
2022/02/01 20:34:52;;;;;;;1.20;0.70;;;10.20;99.90;;;;;;5031834;28;20209;-73
2022/02/01 20:37:19;;;;;;;1.40;0.50;;;10.20;99.90;;;;;;5032152;28;20204;-72
2022/02/01 20:39:50;;;;;;;5.17;0.70;;;10.20;99.90;;;;;;5032131;28;20736;-74
2022/02/01 20:42:18;;;;;;;3.20;0.87;;;10.20;99.90;;;;;;5012749;28;20228;-72
2022/02/01 20:44:45;;;;;;;5.33;1.00;;;10.20;99.90;;;;;;5003662;28;20213;-72
2022/02/01 20:47:14;;;;;;;1.93;0.80;;;10.20;99.90;;;;;;4992608;28;20251;-73
2022/02/01 20:49:42;;;;;;;3.67;1.60;;;10.30;99.90;;;;;;5002183;28;20247;-73
2022/02/01 20:52:09;;;;;;;7.37;1.20;;;10.30;99.90;;;;;;5012387;28;20231;-72
2022/02/01 20:54:36;;;;;;;1.63;0.90;;;10.30;99.90;;;;;;5011960;28;20225;-73
2022/02/01 20:57:03;;;;;;;2.20;0.70;;;10.30;99.90;;;;;;5011694;28;20213;-73
2022/02/01 20:59:30;;;;;;;3.10;0.80;;;10.30;99.90;;;;;;5011769;28;20206;-73
2022/02/01 21:01:57;;;;;;;3.83;0.77;;;10.30;99.90;;;;;;5001956;28;20706;-73
2022/02/01 21:04:25;;;;;;;7.03;1.47;;;10.30;99.90;;;;;;4996511;28;20212;-73
2022/02/01 21:06:52;;;;;;;3.60;1.00;;;10.40;99.90;;;;;;4996462;28;20673;-72
2022/02/01 21:09:19;;;;;;;4.87;1.20;;;10.40;99.90;;;;;;4995960;28;20234;-73
2022/02/01 21:11:46;;;;;;;5.13;0.70;;;10.40;99.90;;;;;;4996374;28;20249;-73
2022/02/01 21:14:13;;;;;;;1.90;0.70;;;10.40;99.90;;;;;;4996251;28;20206;-73
2022/02/01 21:16:40;;;;;;;4.53;1.20;;;10.40;99.90;;;;;;4996288;28;20213;-73
2022/02/01 21:19:07;;;;;;;5.57;1.00;;;10.50;99.90;;;;;;4996407;28;20210;-72
2022/02/01 21:21:37;;;;;;;7.27;0.90;;;10.40;99.90;;;;;;5000382;28;20689;-73
2022/02/01 21:24:05;;;;;;;5.37;1.00;;;10.40;99.90;;;;;;5011964;28;20252;-72
2022/02/01 21:26:32;;;;;;;1.90;0.70;;;10.40;99.90;;;;;;5012809;28;20209;-73
2022/02/01 21:28:59;;;;;;;5.30;1.03;;;10.50;99.90;;;;;;4996223;28;20284;-73
2022/02/01 21:31:27;;;;;;;2.53;0.90;;;10.50;99.90;;;;;;4996382;28;20227;-73
2022/02/01 21:33:54;;;;;;;3.33;0.80;;;10.50;99.90;;;;;;4996149;28;20203;-73
2022/02/01 21:36:21;;;;;;;6.33;1.07;;;10.50;99.90;;;;;;4996144;28;20213;-73
2022/02/01 21:38:49;;;;;;;2.50;0.67;;;10.50;99.90;;;;;;5008653;28;20205;-72
2022/02/01 21:41:16;;;;;;;2.00;0.73;;;10.40;99.90;;;;;;5015340;28;20237;-73
2022/02/01 21:43:43;;;;;;;2.83;0.60;;;10.50;99.90;;;;;;5015061;28;20221;-72
2022/02/01 21:46:10;;;;;;;2.03;0.57;;;10.50;99.90;;;;;;5009684;28;20204;-73
2022/02/01 21:48:36;;;;;;;0.77;0.40;;;10.60;99.90;;;;;;4997627;28;20548;-71
2022/02/01 21:51:03;;;;;;;2.10;0.70;;;10.60;99.90;;;;;;5000069;28;20234;-70
2022/02/01 21:53:30;;;;;;;4.10;0.90;;;10.50;99.90;;;;;;5015948;28;20213;-72
2022/02/01 21:55:58;;;;;;;6.67;0.83;;;10.50;99.90;;;;;;5008451;28;20740;-72
2022/02/01 21:58:25;;;;;;;3.57;0.60;;;10.50;99.90;;;;;;5008981;28;20213;-72
2022/02/01 22:00:52;;;;;;;3.47;1.00;;;10.50;99.90;;;;;;5009380;28;20590;-72
2022/02/01 22:03:19;;;;;;;4.83;0.70;;;10.50;99.90;;;;;;5010597;28;20288;-72
2022/02/01 22:05:46;;;;;;;5.27;0.70;;;10.60;99.90;;;;;;5015068;28;20272;-72
2022/02/01 22:08:12;;;;;;;2.73;0.80;;;10.60;99.90;;;;;;5014161;28;20209;-72